createdAt,value
2023-05-14T00:01:34.988Z,12.15
2023-05-14T00:04:06.027Z,12.10
2023-05-14T00:06:34.179Z,12.02
2023-05-14T00:09:02.458Z,12.48
2023-05-14T00:11:30.759Z,12.73
2023-05-14T00:16:41.110Z,12.20
2023-05-14T00:21:55.765Z,12.65
2023-05-14T00:24:27.862Z,12.68
2023-05-14T00:27:05.852Z,12.80
2023-05-14T00:29:34.618Z,12.13
2023-05-14T00:32:07.307Z,13.07
2023-05-14T00:34:37.458Z,12.95
2023-05-14T00:39:47.919Z,12.00
2023-05-14T00:42:16.308Z,13.07
2023-05-14T00:44:46.026Z,12.00
2023-05-14T00:47:15.435Z,13.02
2023-05-14T00:49:44.275Z,13.38
2023-05-14T00:52:13.241Z,12.38
2023-05-14T00:54:41.994Z,12.82
2023-05-14T00:57:10.465Z,13.52
2023-05-14T00:59:44.553Z,13.75
2023-05-14T01:02:22.013Z,12.40
2023-05-14T01:04:51.418Z,12.15
2023-05-14T01:07:55.171Z,12.50
2023-05-14T01:10:50.350Z,13.32
2023-05-14T01:16:21.861Z,12.82
2023-05-14T01:18:55.610Z,13.45
2023-05-14T01:21:43.315Z,13.77
2023-05-14T01:24:12.250Z,12.80
2023-05-14T01:26:41.072Z,12.38
2023-05-14T01:29:09.204Z,13.10
2023-05-14T01:31:49.353Z,13.68
2023-05-14T01:34:22.955Z,13.00
2023-05-14T01:36:57.186Z,13.38
2023-05-14T01:39:26.856Z,14.02
2023-05-14T01:41:57.512Z,13.63
2023-05-14T01:44:26.096Z,13.75
2023-05-14T01:46:55.174Z,13.32
2023-05-14T01:49:24.293Z,13.15
2023-05-14T01:51:53.144Z,13.65
2023-05-14T01:54:21.210Z,14.35
2023-05-14T01:56:49.394Z,13.35
2023-05-14T01:59:18.305Z,13.60
2023-05-14T02:01:46.695Z,13.43
2023-05-14T02:04:15.075Z,13.63
2023-05-14T02:06:44.313Z,14.18
2023-05-14T02:09:12.330Z,13.48
2023-05-14T02:11:40.749Z,13.32
2023-05-14T02:14:08.987Z,12.55
2023-05-14T02:16:42.171Z,13.55
2023-05-14T02:19:10.761Z,12.52
2023-05-14T02:21:39.937Z,13.73
2023-05-14T02:24:08.221Z,13.52
2023-05-14T02:26:36.706Z,14.15
2023-05-14T02:29:04.670Z,14.40
2023-05-14T02:31:32.819Z,13.48
2023-05-14T02:34:03.252Z,15.30
2023-05-14T02:36:35.660Z,14.75
2023-05-14T02:39:04.935Z,14.75
2023-05-14T02:41:33.263Z,14.43
2023-05-14T02:44:01.618Z,14.40
2023-05-14T02:46:30.921Z,14.07
2023-05-14T02:48:59.133Z,13.77
2023-05-14T02:51:27.374Z,13.52
2023-05-14T02:53:55.628Z,14.48
2023-05-14T02:56:26.553Z,15.18
2023-05-14T02:58:57.380Z,14.52
2023-05-14T03:01:28.989Z,14.68
2023-05-14T03:06:29.126Z,13.85
2023-05-14T03:08:59.768Z,14.30
2023-05-14T03:11:27.668Z,14.27
2023-05-14T03:13:55.800Z,14.40
2023-05-14T03:16:23.972Z,15.70
2023-05-14T03:18:54.563Z,14.18
2023-05-14T03:21:22.670Z,15.13
2023-05-14T03:23:50.898Z,14.43
2023-05-14T03:26:20.206Z,15.43
2023-05-14T03:28:48.772Z,15.13
2023-05-14T03:31:17.126Z,15.63
2023-05-14T03:33:45.555Z,15.07
2023-05-14T03:36:13.544Z,15.05
2023-05-14T03:38:41.555Z,15.20
2023-05-14T03:41:09.694Z,14.45
2023-05-14T03:43:38.354Z,14.75
2023-05-14T03:46:06.678Z,14.98
2023-05-14T03:48:34.930Z,15.65
2023-05-14T03:51:05.740Z,15.68
2023-05-14T03:53:35.511Z,14.52
2023-05-14T03:56:05.940Z,15.25
2023-05-14T03:58:33.972Z,14.07
2023-05-14T04:01:02.189Z,14.80
2023-05-14T04:03:33.057Z,16.45
2023-05-14T04:06:01.998Z,15.52
2023-05-14T04:08:30.454Z,15.75
2023-05-14T04:10:58.521Z,15.25
2023-05-14T04:13:26.668Z,14.57
2023-05-14T04:15:56.511Z,15.63
2023-05-14T04:18:27.196Z,16.23
2023-05-14T04:20:56.726Z,15.27
2023-05-14T04:23:27.935Z,15.30
2023-05-14T04:25:57.512Z,14.88
2023-05-14T04:28:26.543Z,15.52
2023-05-14T04:30:55.307Z,15.00
2023-05-14T04:33:25.372Z,15.40
2023-05-14T04:35:56.511Z,14.23
2023-05-14T04:38:26.016Z,14.70
2023-05-14T04:40:55.441Z,14.88
2023-05-14T04:43:26.528Z,14.20
2023-05-14T04:45:55.042Z,14.02
2023-05-14T04:48:23.455Z,14.80
2023-05-14T04:50:52.235Z,14.07
2023-05-14T04:53:20.429Z,14.38
2023-05-14T04:55:48.504Z,12.80
2023-05-14T04:58:16.671Z,13.02
2023-05-14T05:00:45.873Z,10.95
2023-05-14T05:03:14.024Z,12.27
2023-05-14T05:05:42.415Z,12.18
2023-05-14T05:08:11.636Z,11.80
2023-05-14T05:13:21.768Z,11.35
2023-05-14T05:15:49.750Z,10.90
2023-05-14T05:18:20.180Z,10.63
2023-05-14T05:20:48.279Z,10.77
2023-05-14T05:23:16.489Z,10.40
2023-05-14T05:25:44.753Z,10.35
2023-05-14T05:28:12.624Z,10.60
2023-05-14T05:30:41.119Z,9.95
2023-05-14T05:33:09.840Z,9.90
2023-05-14T05:35:40.839Z,9.32
2023-05-14T05:38:09.104Z,9.10
2023-05-14T05:43:22.680Z,9.23
2023-05-14T05:45:51.278Z,9.40
2023-05-14T05:48:19.625Z,9.57
2023-05-14T05:50:56.336Z,9.07
2023-05-14T05:53:25.972Z,8.75
2023-05-14T05:55:55.325Z,8.40
2023-05-14T05:58:25.980Z,9.13
2023-05-14T06:00:56.407Z,8.57
2023-05-14T06:03:25.086Z,9.25
2023-05-14T06:05:53.599Z,8.65
2023-05-14T06:08:22.282Z,8.38
2023-05-14T06:10:50.317Z,9.40
2023-05-14T06:13:18.596Z,8.30
2023-05-14T06:15:49.717Z,8.68
2023-05-14T06:18:25.724Z,8.33
2023-05-14T06:20:54.480Z,8.40
2023-05-14T06:23:24.968Z,8.82
2023-05-14T06:25:58.871Z,8.30
2023-05-14T06:28:29.666Z,8.65
2023-05-14T06:31:07.076Z,8.98
2023-05-14T06:33:43.890Z,8.77
2023-05-14T06:38:44.760Z,9.32
2023-05-14T06:41:16.184Z,8.23
2023-05-14T06:43:44.585Z,10.48
2023-05-14T06:46:12.974Z,10.02
2023-05-14T06:48:43.270Z,11.13
2023-05-14T06:51:16.625Z,9.48
2023-05-14T06:53:49.753Z,9.38
2023-05-14T06:56:18.779Z,9.43
2023-05-14T06:58:50.738Z,9.55
2023-05-14T07:01:21.661Z,9.80
2023-05-14T07:03:51.035Z,8.60
2023-05-14T07:06:19.411Z,9.45
2023-05-14T07:08:47.532Z,9.35
2023-05-14T07:11:20.565Z,8.40
2023-05-14T07:13:48.729Z,8.50
2023-05-14T07:16:19.375Z,9.02
2023-05-14T07:18:47.699Z,10.18
2023-05-14T07:21:16.553Z,9.48
2023-05-14T07:23:44.562Z,8.95
2023-05-14T07:26:12.565Z,8.80
2023-05-14T07:28:40.814Z,8.98
2023-05-14T07:31:09.322Z,9.40
2023-05-14T07:33:38.012Z,9.40
2023-05-14T07:36:06.711Z,8.65
2023-05-14T07:38:35.155Z,8.98
2023-05-14T07:41:03.349Z,8.25
2023-05-14T07:43:32.213Z,8.18
2023-05-14T07:46:03.784Z,8.25
2023-05-14T07:51:17.200Z,8.05
2023-05-14T07:56:27.867Z,8.30
2023-05-14T07:58:57.916Z,8.15
2023-05-14T08:01:26.801Z,8.73
2023-05-14T08:03:55.179Z,8.45
2023-05-14T08:06:25.490Z,8.65
2023-05-14T08:08:53.631Z,7.70
2023-05-14T08:11:22.655Z,8.38
2023-05-14T08:13:50.699Z,7.88
2023-05-14T08:16:18.870Z,8.15
2023-05-14T08:18:48.129Z,8.60
2023-05-14T08:21:16.567Z,8.57
2023-05-14T08:23:44.668Z,7.90
2023-05-14T08:26:15.546Z,8.50
2023-05-14T08:28:46.510Z,8.52
2023-05-14T08:31:14.904Z,8.50
2023-05-14T08:33:43.375Z,7.80
2023-05-14T08:36:11.952Z,7.45
2023-05-14T08:38:42.990Z,8.15
2023-05-14T08:41:13.076Z,7.18
2023-05-14T08:43:49.615Z,8.23
2023-05-14T08:46:23.249Z,7.22
2023-05-14T08:49:12.117Z,7.20
2023-05-14T08:51:57.678Z,7.35
2023-05-14T08:54:35.173Z,7.40
2023-05-14T08:57:13.336Z,6.97
2023-05-14T08:59:49.760Z,6.93
2023-05-14T09:02:37.702Z,7.10
2023-05-14T09:05:09.588Z,6.63
2023-05-14T09:08:05.981Z,7.38
2023-05-14T09:10:42.296Z,5.68
2023-05-14T09:13:26.321Z,6.65
2023-05-14T09:16:02.803Z,6.18
2023-05-14T09:18:48.054Z,6.28
2023-05-14T09:21:33.647Z,5.95
2023-05-14T09:24:05.785Z,5.97
2023-05-14T09:26:35.473Z,5.95
2023-05-14T09:29:04.257Z,6.28
2023-05-14T09:34:43.263Z,5.85
2023-05-14T09:37:11.986Z,5.83
2023-05-14T09:39:40.687Z,6.55
2023-05-14T09:42:10.030Z,5.88
2023-05-14T09:44:43.883Z,6.15
2023-05-14T09:47:17.092Z,6.90
2023-05-14T09:49:48.671Z,6.30
2023-05-14T09:52:19.897Z,6.22
2023-05-14T09:54:51.280Z,6.88
2023-05-14T09:57:20.538Z,7.20
2023-05-14T09:59:49.160Z,6.43
2023-05-14T10:02:27.530Z,6.68
2023-05-14T10:04:59.173Z,7.05
2023-05-14T10:07:33.920Z,6.82
2023-05-14T10:10:09.008Z,7.07
2023-05-14T10:12:45.219Z,5.90
2023-05-14T10:15:24.997Z,5.57
2023-05-14T10:17:58.802Z,6.40
2023-05-14T10:20:28.153Z,6.10
2023-05-14T10:23:00.349Z,5.72
2023-05-14T10:25:31.550Z,6.13
2023-05-14T10:28:03.758Z,5.35
2023-05-14T10:30:34.542Z,5.70
2023-05-14T10:33:10.130Z,5.20
2023-05-14T10:36:05.485Z,5.60
2023-05-14T10:38:40.760Z,4.88
2023-05-14T10:41:23.662Z,4.95
2023-05-14T10:43:52.757Z,5.22
2023-05-14T10:46:21.461Z,5.25
2023-05-14T10:48:51.077Z,4.65
2023-05-14T10:51:23.190Z,5.10
2023-05-14T10:53:56.967Z,5.57
2023-05-14T10:56:39.974Z,5.35
2023-05-14T10:59:11.668Z,4.72
2023-05-14T11:01:42.577Z,4.53
2023-05-14T11:04:19.264Z,4.72
2023-05-14T11:06:48.788Z,5.25
2023-05-14T11:09:20.315Z,5.38
2023-05-14T11:11:52.896Z,4.93
2023-05-14T11:14:22.896Z,4.60
2023-05-14T11:16:51.342Z,3.80
2023-05-14T11:19:25.608Z,4.35
2023-05-14T11:21:53.784Z,5.40
2023-05-14T11:24:22.196Z,4.53
2023-05-14T11:26:51.140Z,4.43
2023-05-14T11:29:19.536Z,4.90
2023-05-14T11:31:48.152Z,4.57
2023-05-14T11:34:16.651Z,4.60
2023-05-14T11:36:45.091Z,5.32
2023-05-14T11:39:19.528Z,5.80
2023-05-14T11:44:16.099Z,4.97
2023-05-14T11:46:55.607Z,5.10
2023-05-14T11:49:27.651Z,5.25
2023-05-14T11:52:05.386Z,4.40
2023-05-14T11:54:36.034Z,4.65
2023-05-14T11:57:14.982Z,4.55
2023-05-14T11:59:43.472Z,4.00
2023-05-14T12:02:14.607Z,4.20
2023-05-14T12:04:43.812Z,3.80
2023-05-14T12:07:17.981Z,3.55
2023-05-14T12:09:51.813Z,3.50
2023-05-14T12:12:22.427Z,3.50
2023-05-14T12:14:52.693Z,3.70
2023-05-14T12:17:24.474Z,3.30
2023-05-14T12:19:53.871Z,3.45
2023-05-14T12:22:23.277Z,3.40
2023-05-14T12:24:56.104Z,3.85
2023-05-14T12:27:26.640Z,3.38
2023-05-14T12:30:19.958Z,3.50
2023-05-14T12:32:52.147Z,3.35
2023-05-14T12:35:23.394Z,3.10
2023-05-14T12:37:52.052Z,3.25
2023-05-14T12:40:20.702Z,4.15
2023-05-14T12:42:48.754Z,4.00
2023-05-14T12:45:16.983Z,3.75
2023-05-14T12:47:47.916Z,4.03
2023-05-14T12:50:16.503Z,3.60
2023-05-14T12:52:48.639Z,3.88
2023-05-14T12:55:17.307Z,3.28
2023-05-14T12:57:50.460Z,3.30
2023-05-14T13:00:21.378Z,3.83
2023-05-14T13:02:49.830Z,2.92
2023-05-14T13:05:26.216Z,3.15
2023-05-14T13:07:54.947Z,3.10
2023-05-14T13:10:23.179Z,2.78
2023-05-14T13:12:55.262Z,2.90
2023-05-14T13:15:23.876Z,3.38
2023-05-14T13:17:53.096Z,3.30
2023-05-14T13:20:23.640Z,3.30
2023-05-14T13:22:51.638Z,3.67
2023-05-14T13:25:20.312Z,2.95
2023-05-14T13:27:50.833Z,3.35
2023-05-14T13:30:20.068Z,3.50
2023-05-14T13:32:49.230Z,3.53
2023-05-14T13:35:22.026Z,3.50
2023-05-14T13:37:50.505Z,2.97
2023-05-14T13:40:18.566Z,3.42
2023-05-14T13:42:46.610Z,2.88
2023-05-14T13:45:23.751Z,2.83
2023-05-14T13:47:53.565Z,2.90
2023-05-14T13:50:32.889Z,2.58
2023-05-14T13:53:04.147Z,3.50
2023-05-14T13:55:32.421Z,3.00
2023-05-14T13:58:02.823Z,2.90
2023-05-14T14:00:37.094Z,2.83
2023-05-14T14:03:15.277Z,2.80
2023-05-14T14:05:47.006Z,3.00
2023-05-14T14:08:23.238Z,3.10
2023-05-14T14:10:55.837Z,2.90
2023-05-14T14:13:24.963Z,2.85
2023-05-14T14:15:55.535Z,3.35
2023-05-14T14:18:25.759Z,3.13
2023-05-14T14:20:58.297Z,3.00
2023-05-14T14:23:30.194Z,3.00
2023-05-14T14:26:04.740Z,3.00
2023-05-14T14:28:33.488Z,2.90
2023-05-14T14:31:03.867Z,2.67
2023-05-14T14:33:32.558Z,2.75
2023-05-14T14:36:06.479Z,2.80
2023-05-14T14:38:34.912Z,2.50
2023-05-14T14:41:08.111Z,3.25
2023-05-14T14:43:45.554Z,2.42
2023-05-14T14:46:13.940Z,2.53
2023-05-14T14:48:42.597Z,2.90
2023-05-14T14:51:11.214Z,2.53
2023-05-14T14:53:40.660Z,2.70
2023-05-14T14:56:09.138Z,2.90
2023-05-14T14:58:38.540Z,2.83
2023-05-14T15:01:09.630Z,3.90
2023-05-14T15:03:39.187Z,3.90
2023-05-14T15:06:07.690Z,2.97
2023-05-14T15:08:36.045Z,3.10
2023-05-14T15:11:04.553Z,5.82
2023-05-14T15:13:32.995Z,2.55
2023-05-14T15:16:01.339Z,3.03
2023-05-14T15:18:29.447Z,2.90
2023-05-14T15:20:57.842Z,2.90
2023-05-14T15:23:26.441Z,2.90
2023-05-14T15:25:55.440Z,3.35
2023-05-14T15:28:23.783Z,4.68
2023-05-14T15:30:56.870Z,3.30
2023-05-14T15:33:25.551Z,3.50
2023-05-14T15:35:53.633Z,3.33
2023-05-14T15:38:22.318Z,3.70
2023-05-14T15:40:51.219Z,3.33
2023-05-14T15:43:19.215Z,3.15
2023-05-14T15:45:47.382Z,3.40
2023-05-14T15:48:18.649Z,3.40
2023-05-14T15:50:49.748Z,3.45
2023-05-14T15:53:18.667Z,3.80
2023-05-14T15:55:49.232Z,3.00
2023-05-14T15:58:19.901Z,3.08
2023-05-14T16:00:57.786Z,2.90
2023-05-14T16:03:31.043Z,3.10
2023-05-14T16:08:42.430Z,3.40
2023-05-14T16:13:54.002Z,3.00
2023-05-14T16:16:23.561Z,3.20
2023-05-14T16:18:55.306Z,3.03
2023-05-14T16:21:23.620Z,3.00
2023-05-14T16:23:51.944Z,3.15
2023-05-14T16:26:27.868Z,3.20
2023-05-14T16:28:56.427Z,2.95
2023-05-14T16:31:25.976Z,3.25
2023-05-14T16:33:55.046Z,3.10
2023-05-14T16:36:23.217Z,2.90
2023-05-14T16:39:06.732Z,3.38
2023-05-14T16:44:29.190Z,3.50
2023-05-14T16:46:58.097Z,4.10
2023-05-14T16:49:26.808Z,3.80
2023-05-14T16:51:56.433Z,3.38
2023-05-14T16:54:24.968Z,3.83
2023-05-14T16:56:53.671Z,3.60
2023-05-14T16:59:26.581Z,4.85
2023-05-14T17:01:56.213Z,3.40
2023-05-14T17:04:35.543Z,3.30
2023-05-14T17:07:04.232Z,3.92
2023-05-14T17:09:32.654Z,4.10
2023-05-14T17:12:01.181Z,4.20
2023-05-14T17:14:37.116Z,4.68
2023-05-14T17:17:06.127Z,4.47
2023-05-14T17:19:34.267Z,5.45
2023-05-14T17:22:06.634Z,5.40
2023-05-14T17:24:37.878Z,6.22
2023-05-14T17:27:08.090Z,5.68
2023-05-14T17:29:39.636Z,6.00
2023-05-14T17:32:08.891Z,6.10
2023-05-14T17:34:37.468Z,6.82
2023-05-14T17:37:06.887Z,6.88
2023-05-14T17:39:39.132Z,5.97
2023-05-14T17:42:11.300Z,6.90
2023-05-14T17:44:40.487Z,6.47
2023-05-14T17:47:10.469Z,6.63
2023-05-14T17:49:39.197Z,6.15
2023-05-14T17:52:08.314Z,7.15
2023-05-14T17:54:36.847Z,6.35
2023-05-14T17:57:06.011Z,6.47
2023-05-14T17:59:35.247Z,7.05
2023-05-14T18:02:08.262Z,7.28
2023-05-14T18:04:37.068Z,7.80
2023-05-14T18:07:06.080Z,7.70
2023-05-14T18:09:35.213Z,7.57
2023-05-14T18:12:07.388Z,7.95
2023-05-14T18:14:36.005Z,8.05
2023-05-14T18:17:04.714Z,8.05
2023-05-14T18:19:38.625Z,8.57
2023-05-14T18:22:07.131Z,8.85
2023-05-14T18:24:36.414Z,9.20
2023-05-14T18:27:08.464Z,8.50
2023-05-14T18:29:37.455Z,8.30
2023-05-14T18:32:07.010Z,8.25
2023-05-14T18:34:38.768Z,8.30
2023-05-14T18:37:42.470Z,8.10
2023-05-14T18:40:17.036Z,8.60
2023-05-14T18:42:50.339Z,8.50
2023-05-14T18:45:24.639Z,7.68
2023-05-14T18:47:56.547Z,8.30
2023-05-14T18:50:26.601Z,8.00
2023-05-14T18:52:57.947Z,8.00
2023-05-14T18:55:27.308Z,7.88
2023-05-14T18:57:56.974Z,8.75
2023-05-14T19:00:34.025Z,8.20
2023-05-14T19:03:05.143Z,7.35
2023-05-14T19:05:33.926Z,8.07
2023-05-14T19:08:07.485Z,8.00
2023-05-14T19:10:36.477Z,8.15
2023-05-14T19:13:05.763Z,7.80
2023-05-14T19:15:40.853Z,8.25
2023-05-14T19:18:15.753Z,8.00
2023-05-14T19:20:49.844Z,7.82
2023-05-14T19:23:21.319Z,7.68
2023-05-14T19:25:49.918Z,7.78
2023-05-14T19:28:20.129Z,7.15
2023-05-14T19:30:51.125Z,8.20
2023-05-14T19:33:20.062Z,8.15
2023-05-14T19:35:51.480Z,8.30
2023-05-14T19:38:20.367Z,8.10
2023-05-14T19:40:50.696Z,8.32
2023-05-14T19:43:20.552Z,8.23
2023-05-14T19:45:53.420Z,8.32
2023-05-14T19:48:37.560Z,8.13
2023-05-14T19:51:45.158Z,8.55
2023-05-14T19:54:18.146Z,9.13
2023-05-14T19:56:54.316Z,8.07
2023-05-14T19:59:34.870Z,9.02
2023-05-14T20:02:13.310Z,8.65
2023-05-14T20:05:00.163Z,8.73
2023-05-14T20:10:25.216Z,8.70
2023-05-14T20:12:56.884Z,8.60
2023-05-14T20:15:37.426Z,9.30
2023-05-14T20:18:09.088Z,9.55
2023-05-14T20:20:45.353Z,9.63
2023-05-14T20:23:17.322Z,9.23
2023-05-14T20:25:51.235Z,9.98
2023-05-14T20:28:26.122Z,9.35
2023-05-14T20:31:04.747Z,9.73
2023-05-14T20:33:36.544Z,10.18
2023-05-14T20:36:06.360Z,10.57
2023-05-14T20:38:40.468Z,9.93
2023-05-14T20:41:16.772Z,10.90
2023-05-14T20:44:00.185Z,11.10
2023-05-14T20:46:31.731Z,11.27
2023-05-14T20:49:02.559Z,10.95
2023-05-14T20:51:33.123Z,10.65
2023-05-14T20:54:05.834Z,11.50
2023-05-14T20:56:39.851Z,11.30
2023-05-14T20:59:21.323Z,11.60
2023-05-14T21:02:03.828Z,12.05
2023-05-14T21:07:47.242Z,12.00
2023-05-14T21:10:44.162Z,12.13
2023-05-14T21:13:48.208Z,11.70
2023-05-14T21:16:21.074Z,12.13
2023-05-14T21:19:08.498Z,12.05
2023-05-14T21:21:41.546Z,12.13
2023-05-14T21:24:21.829Z,12.25
2023-05-14T21:26:58.366Z,12.45
2023-05-14T21:32:11.555Z,11.95
2023-05-14T21:37:58.584Z,12.82
2023-05-14T21:40:33.109Z,12.43
2023-05-14T21:43:07.398Z,12.93
2023-05-14T21:45:48.677Z,12.20
2023-05-14T21:48:17.398Z,12.90
2023-05-14T21:51:36.518Z,12.82
2023-05-14T21:56:56.598Z,12.15
2023-05-14T21:59:28.420Z,13.60
2023-05-14T22:10:07.622Z,11.88
2023-05-14T22:12:36.419Z,12.50
2023-05-14T22:15:06.174Z,12.05
2023-05-14T22:17:34.529Z,11.95
2023-05-14T22:20:07.578Z,12.85
2023-05-14T22:22:35.708Z,12.13
2023-05-14T22:25:04.553Z,12.70
2023-05-14T22:27:32.788Z,12.82
2023-05-14T22:30:01.013Z,12.48
2023-05-14T22:32:33.446Z,12.55
2023-05-14T22:35:01.948Z,12.60
2023-05-14T22:37:30.038Z,12.80
2023-05-14T22:39:58.348Z,13.32
2023-05-14T22:42:28.217Z,13.15
2023-05-14T22:44:56.392Z,11.38
2023-05-14T22:47:27.641Z,12.77
2023-05-14T22:49:55.726Z,13.02
2023-05-14T22:52:25.705Z,13.70
2023-05-14T22:54:54.660Z,13.68
2023-05-14T22:57:22.856Z,12.85
2023-05-14T22:59:50.998Z,14.23
2023-05-14T23:02:19.513Z,13.55
2023-05-14T23:04:47.896Z,13.32
2023-05-14T23:07:16.347Z,13.80
2023-05-14T23:09:44.644Z,14.10
2023-05-14T23:12:12.806Z,13.95
2023-05-14T23:14:40.824Z,12.35
2023-05-14T23:17:09.313Z,12.70
2023-05-14T23:19:37.549Z,13.35
2023-05-14T23:22:05.967Z,13.20
2023-05-14T23:24:34.290Z,13.30
2023-05-14T23:27:02.612Z,14.23
2023-05-14T23:29:33.391Z,14.20
2023-05-14T23:32:04.768Z,13.70
2023-05-14T23:34:35.588Z,13.82
2023-05-14T23:37:03.887Z,13.73
2023-05-14T23:39:32.131Z,14.25
2023-05-14T23:42:00.210Z,13.45
2023-05-14T23:44:28.558Z,13.85
2023-05-14T23:46:56.820Z,13.82
2023-05-14T23:49:24.875Z,13.38
2023-05-14T23:51:52.987Z,13.50
2023-05-14T23:54:21.526Z,13.25
2023-05-14T23:56:49.903Z,13.40
2023-05-14T23:59:18.352Z,13.07
